Time;durP1;ratioP1;P1;durP2;ratioP2;P2;SDS_P1;SDS_P2;PMS_P1;PMS_P2;Temp;Humidity;BMP_temperature;BMP_pressure;BME280_temperature;BME280_humidity;BME280_pressure;Samples;Min_cycle;Max_cycle;Signal;HPM_P1;HPM_P2
2022/12/18 00:02:25;;;;;;;44.78;18.25;;;-1.50;52.90;;;;;;5019722;28;20052;-88
2022/12/18 00:04:52;;;;;;;46.75;18.40;;;-1.50;52.90;;;;;;5019766;28;20041;-89
2022/12/18 00:07:19;;;;;;;41.42;17.13;;;-1.50;52.90;;;;;;5019469;28;20678;-89
2022/12/18 00:09:47;;;;;;;43.67;17.00;;;-1.50;53.00;;;;;;5020051;28;20061;-89
2022/12/18 00:12:14;;;;;;;44.97;18.65;;;-1.60;53.00;;;;;;5020316;28;20057;-89
2022/12/18 00:14:41;;;;;;;47.17;19.13;;;-1.60;53.10;;;;;;5017170;28;20049;-89
2022/12/18 00:17:10;;;;;;;44.28;18.92;;;-1.60;53.10;;;;;;5020865;28;20053;-89
2022/12/18 00:19:37;;;;;;;46.35;18.83;;;-1.60;53.70;;;;;;5025886;28;20493;-90
2022/12/18 00:22:05;;;;;;;42.78;17.35;;;-1.60;53.30;;;;;;5016241;28;20475;-90
2022/12/18 00:24:33;;;;;;;45.58;17.70;;;-1.60;53.40;;;;;;5018393;28;20515;-89
2022/12/18 00:27:00;;;;;;;43.75;18.45;;;-1.60;53.50;;;;;;5019681;28;20053;-90
2022/12/18 00:29:27;;;;;;;38.50;16.92;;;-1.60;53.60;;;;;;5018906;28;20053;-88
2022/12/18 00:31:55;;;;;;;43.38;17.85;;;-1.60;53.70;;;;;;5018694;28;20166;-88
2022/12/18 00:34:23;;;;;;;40.88;17.65;;;-1.60;53.70;;;;;;5022014;28;20058;-89
2022/12/18 00:36:51;;;;;;;46.42;18.52;;;-1.60;53.70;;;;;;5023425;28;20053;-89
2022/12/18 00:39:18;;;;;;;40.92;17.38;;;-1.60;53.70;;;;;;5021993;28;20633;-89
2022/12/18 00:44:30;;;;;;;43.15;17.13;;;-1.60;53.70;;;;;;5025233;28;20056;-88
2022/12/18 00:46:57;;;;;;;40.53;17.48;;;-1.60;53.70;;;;;;5024248;28;20054;-89
2022/12/18 00:49:26;;;;;;;44.28;17.98;;;-1.60;53.70;;;;;;5022636;28;20104;-89
2022/12/18 00:51:54;;;;;;;39.60;17.27;;;-1.60;53.70;;;;;;5020884;28;20057;-89
2022/12/18 00:54:21;;;;;;;48.53;17.52;;;-1.60;54.20;;;;;;5021391;28;20614;-89
2022/12/18 00:56:48;;;;;;;37.28;16.35;;;-1.60;53.70;;;;;;5021756;28;20072;-89
2022/12/18 00:59:16;;;;;;;42.42;18.30;;;-1.60;53.70;;;;;;5021998;28;20057;-90
2022/12/18 01:01:43;;;;;;;41.28;15.38;;;-1.60;53.70;;;;;;5023272;28;20063;-90
2022/12/18 01:04:11;;;;;;;41.97;17.23;;;-1.50;53.80;;;;;;5021679;28;20449;-90
2022/12/18 01:06:41;;;;;;;42.33;17.48;;;-1.50;53.90;;;;;;5023345;28;20160;-90
2022/12/18 01:09:08;;;;;;;48.28;17.40;;;-1.50;53.80;;;;;;5022768;28;20527;-90
2022/12/18 01:11:35;;;;;;;34.78;15.43;;;-1.50;53.90;;;;;;5027268;28;20049;-91
2022/12/18 01:14:03;;;;;;;38.05;16.25;;;-1.50;53.90;;;;;;5020131;28;20054;-91
2022/12/18 01:16:30;;;;;;;39.15;17.10;;;-1.50;53.90;;;;;;5022000;28;20057;-89
2022/12/18 01:18:57;;;;;;;40.88;16.98;;;-1.50;53.90;;;;;;5022081;28;20374;-89
2022/12/18 01:21:25;;;;;;;42.60;17.88;;;-1.50;53.80;;;;;;5023494;28;20053;-90
2022/12/18 01:23:55;;;;;;;41.00;17.50;;;-1.50;53.80;;;;;;5017139;28;20053;-89
2022/12/18 01:26:23;;;;;;;35.40;15.88;;;-1.50;53.70;;;;;;5022752;28;20053;-89
2022/12/18 01:28:51;;;;;;;38.28;16.20;;;-1.50;53.70;;;;;;5022767;28;20064;-89
2022/12/18 01:31:20;;;;;;;41.95;16.73;;;-1.40;53.70;;;;;;5022411;28;20057;-90
2022/12/18 01:33:48;;;;;;;35.78;16.48;;;-1.40;53.60;;;;;;5016751;28;20061;-89
2022/12/18 01:36:21;;;;;;;40.53;16.85;;;-1.40;53.40;;;;;;5022833;28;20054;-88
2022/12/18 01:38:49;;;;;;;43.67;18.15;;;-1.40;53.30;;;;;;5020284;28;20072;-90
2022/12/18 01:41:21;;;;;;;40.97;17.23;;;-1.50;53.20;;;;;;5022933;28;20516;-89
2022/12/18 01:43:52;;;;;;;39.92;16.73;;;-1.50;53.30;;;;;;5024015;28;20060;-89
2022/12/18 01:46:22;;;;;;;40.35;16.92;;;-1.50;53.40;;;;;;5021542;28;20061;-89
2022/12/18 01:48:53;;;;;;;40.95;18.38;;;-1.50;53.50;;;;;;5020352;28;20091;-90
2022/12/18 01:51:20;;;;;;;38.10;16.88;;;-1.50;53.40;;;;;;5018452;28;20060;-90
2022/12/18 01:53:48;;;;;;;33.45;15.57;;;-1.50;53.40;;;;;;5018819;28;20058;-89
2022/12/18 01:56:19;;;;;;;34.35;15.48;;;-1.60;53.40;;;;;;5021204;28;20053;-89
2022/12/18 01:58:53;;;;;;;38.55;16.10;;;-1.60;53.50;;;;;;5022812;28;20103;-88
2022/12/18 02:01:22;;;;;;;36.08;15.73;;;-1.60;53.50;;;;;;5022059;28;20057;-90
2022/12/18 02:03:49;;;;;;;38.70;17.02;;;-1.60;53.50;;;;;;5018999;28;20069;-90
2022/12/18 02:06:22;;;;;;;34.53;16.00;;;-1.60;53.50;;;;;;5014092;28;20406;-89
2022/12/18 02:09:08;;;;;;;42.80;16.30;;;-1.50;53.50;;;;;;5018280;28;20062;-90
2022/12/18 02:11:46;;;;;;;30.95;14.45;;;-1.50;53.50;;;;;;5019608;28;20045;-90
2022/12/18 02:14:24;;;;;;;38.40;15.40;;;-1.50;53.60;;;;;;5022639;28;20469;-90
2022/12/18 02:17:00;;;;;;;40.97;15.07;;;-1.50;53.60;;;;;;5022298;28;21237;-90
2022/12/18 02:19:44;;;;;;;41.88;16.50;;;-1.50;53.60;;;;;;5021020;28;20061;-90
2022/12/18 02:22:26;;;;;;;;;;;-1.50;53.60;;;;;;5018610;28;20049;-89
2022/12/18 02:25:03;;;;;;;33.40;14.15;;;-1.50;53.50;;;;;;5018572;28;19921;-89
2022/12/18 02:27:35;;;;;;;35.78;16.00;;;-1.40;53.50;;;;;;5021996;28;20064;-90
2022/12/18 02:30:04;;;;;;;39.33;17.05;;;-1.50;53.40;;;;;;5018961;28;20053;-90
2022/12/18 02:32:35;;;;;;;42.15;16.13;;;-1.50;53.30;;;;;;5017708;28;20076;-91
2022/12/18 02:35:07;;;;;;;36.00;15.35;;;-1.50;53.30;;;;;;5018778;28;20050;-89
2022/12/18 02:37:36;;;;;;;36.03;16.02;;;-1.50;53.20;;;;;;5017316;28;20050;-90
2022/12/18 02:40:06;;;;;;;34.00;15.25;;;-1.50;53.20;;;;;;5018391;28;20049;-89
2022/12/18 02:42:35;;;;;;;33.97;15.65;;;-1.50;53.20;;;;;;5022432;28;20058;-89
2022/12/18 02:45:02;;;;;;;36.55;16.27;;;-1.50;53.20;;;;;;5027190;28;20050;-90
2022/12/18 02:47:33;;;;;;;38.00;16.50;;;-1.50;53.60;;;;;;5021499;28;20053;-90
2022/12/18 02:50:10;;;;;;;38.00;16.25;;;-1.50;53.10;;;;;;5014987;28;20081;-90
2022/12/18 02:52:46;;;;;;;37.45;16.17;;;-1.50;53.10;;;;;;5021205;28;20053;-89
2022/12/18 02:55:23;;;;;;;36.72;15.88;;;-1.50;53.00;;;;;;5020063;28;20049;-91
2022/12/18 02:57:57;;;;;;;34.13;14.77;;;-1.50;52.90;;;;;;5024102;28;20053;-91
2022/12/18 03:00:29;;;;;;;40.80;17.38;;;-1.60;52.80;;;;;;5020657;28;20402;-91
2022/12/18 03:03:01;;;;;;;32.42;14.88;;;-1.60;52.90;;;;;;5021507;28;20390;-88
2022/12/18 03:05:34;;;;;;;35.45;15.27;;;-1.60;52.90;;;;;;5018892;28;20057;-88
2022/12/18 03:08:07;;;;;;;37.25;16.40;;;-1.60;53.00;;;;;;5024692;28;20057;-91
2022/12/18 03:10:39;;;;;;;34.35;15.50;;;-1.60;52.90;;;;;;5017613;28;20060;-88
2022/12/18 03:13:13;;;;;;;39.03;15.93;;;-1.60;52.90;;;;;;5024593;28;20113;-88
2022/12/18 03:15:44;;;;;;;33.97;15.02;;;-1.60;52.90;;;;;;5021167;28;20057;-87
2022/12/18 03:18:16;;;;;;;38.13;15.63;;;-1.60;52.90;;;;;;5017395;28;20053;-89
2022/12/18 03:20:45;;;;;;;34.65;16.02;;;-1.70;52.80;;;;;;5014219;28;20160;-87
2022/12/18 03:23:16;;;;;;;36.47;16.10;;;-1.60;52.90;;;;;;5020502;28;20524;-87
2022/12/18 03:25:46;;;;;;;32.78;15.45;;;-1.70;52.80;;;;;;5019566;28;20053;-88
2022/12/18 03:28:19;;;;;;;37.13;15.65;;;-1.70;52.80;;;;;;5017035;28;20049;-89
2022/12/18 03:30:50;;;;;;;42.45;16.48;;;-1.70;52.90;;;;;;5026294;28;20058;-87
2022/12/18 03:33:24;;;;;;;33.35;14.60;;;-1.70;52.90;;;;;;5019651;28;20061;-87
2022/12/18 03:35:52;;;;;;;36.13;16.05;;;-1.70;52.90;;;;;;5018420;28;20060;-88
2022/12/18 03:38:23;;;;;;;46.17;18.55;;;-1.70;52.90;;;;;;5017952;28;20068;-88
2022/12/18 03:41:00;;;;;;;35.20;15.98;;;-1.70;52.90;;;;;;5020462;28;20408;-89
2022/12/18 03:43:43;;;;;;;39.28;15.90;;;-1.70;52.90;;;;;;5020308;28;20049;-89
2022/12/18 03:46:21;;;;;;;35.05;16.30;;;-1.70;52.90;;;;;;5019027;28;20072;-87
2022/12/18 03:48:52;;;;;;;40.30;17.52;;;-1.70;53.00;;;;;;5015336;28;20402;-89
2022/12/18 03:51:25;;;;;;;38.47;16.35;;;-1.70;53.00;;;;;;5014225;28;20052;-89
2022/12/18 03:53:57;;;;;;;46.10;18.33;;;-1.80;53.00;;;;;;5017980;28;20057;-88
2022/12/18 03:56:28;;;;;;;41.67;18.33;;;-1.80;53.20;;;;;;5020380;28;20049;-88
2022/12/18 03:59:00;;;;;;;39.97;16.52;;;-1.80;53.20;;;;;;5019851;28;20489;-89
2022/12/18 04:01:31;;;;;;;39.85;18.05;;;-1.80;53.20;;;;;;5020019;28;20056;-89
2022/12/18 04:04:01;;;;;;;41.60;18.05;;;-1.80;53.30;;;;;;5019469;28;20057;-88
2022/12/18 04:06:29;;;;;;;46.50;18.48;;;-1.80;53.90;;;;;;5020545;28;20428;-89
2022/12/18 04:08:59;;;;;;;37.67;16.67;;;-1.80;53.50;;;;;;5021173;28;20053;-89
2022/12/18 04:11:26;;;;;;;38.17;16.10;;;-1.80;53.60;;;;;;5024486;28;20065;-89
2022/12/18 04:13:58;;;;;;;38.78;17.88;;;-1.80;53.70;;;;;;5022361;28;20516;-89
2022/12/18 04:16:26;;;;;;;42.65;16.50;;;-1.80;53.70;;;;;;5023663;28;20049;-88
2022/12/18 04:18:54;;;;;;;36.75;15.68;;;-1.80;53.70;;;;;;5019319;28;20136;-89
2022/12/18 04:21:22;;;;;;;39.45;17.55;;;-1.80;53.70;;;;;;5017721;28;20493;-88
2022/12/18 04:23:50;;;;;;;37.28;16.20;;;-1.80;53.80;;;;;;5013391;28;20600;-89
2022/12/18 04:26:17;;;;;;;37.28;16.20;;;-1.80;53.90;;;;;;5028793;28;20045;-92
2022/12/18 04:28:44;;;;;;;39.60;16.55;;;-1.70;53.90;;;;;;5021898;28;20084;-88
2022/12/18 04:31:14;;;;;;;40.55;17.20;;;-1.70;54.00;;;;;;5021473;28;20517;-89
2022/12/18 04:33:41;;;;;;;39.05;16.77;;;-1.70;53.90;;;;;;5019303;28;20053;-88
2022/12/18 04:36:08;;;;;;;42.08;17.83;;;-1.70;54.00;;;;;;5017455;28;20057;-89
2022/12/18 04:38:36;;;;;;;43.20;18.95;;;-1.60;54.00;;;;;;5022332;28;20498;-89
2022/12/18 04:41:03;;;;;;;36.58;16.92;;;-1.70;54.00;;;;;;5018154;28;20068;-89
2022/12/18 04:43:32;;;;;;;40.45;17.73;;;-1.60;53.90;;;;;;5023318;28;20532;-89
2022/12/18 04:46:03;;;;;;;41.15;18.02;;;-1.70;53.90;;;;;;5022520;28;20054;-89
2022/12/18 04:48:33;;;;;;;45.13;19.13;;;-1.70;54.00;;;;;;5022826;28;20057;-89
2022/12/18 04:51:00;;;;;;;38.55;16.92;;;-1.70;54.00;;;;;;5021902;28;20505;-88
2022/12/18 04:53:27;;;;;;;40.25;17.52;;;-1.70;54.00;;;;;;5021862;28;20057;-89
2022/12/18 04:56:05;;;;;;;36.40;17.48;;;-1.60;54.10;;;;;;5026088;28;20049;-89
2022/12/18 04:58:32;;;;;;;39.15;16.92;;;-1.60;54.20;;;;;;5020020;28;20515;-89
2022/12/18 05:00:59;;;;;;;41.70;17.30;;;-1.60;54.20;;;;;;5020756;28;20049;-89
2022/12/18 05:03:27;;;;;;;43.33;17.98;;;-1.60;54.20;;;;;;5021873;28;20053;-88
2022/12/18 05:05:55;;;;;;;38.55;17.67;;;-1.60;54.20;;;;;;5021977;28;20092;-89
2022/12/18 05:08:23;;;;;;;45.45;18.73;;;-1.60;54.30;;;;;;5027475;28;20465;-88
2022/12/18 05:10:50;;;;;;;42.50;18.42;;;-1.60;54.20;;;;;;5022688;28;20066;-89
2022/12/18 05:13:17;;;;;;;43.50;19.48;;;-1.50;54.30;;;;;;5023200;28;20058;-89
2022/12/18 05:15:53;;;;;;;38.72;17.70;;;-1.50;54.30;;;;;;5020292;28;20060;-88
2022/12/18 05:18:20;;;;;;;36.55;16.40;;;-1.50;54.30;;;;;;5018152;28;20050;-89
2022/12/18 05:20:47;;;;;;;37.00;16.60;;;-1.50;54.30;;;;;;5017774;28;20057;-88
2022/12/18 05:23:16;;;;;;;42.42;18.35;;;-1.50;54.20;;;;;;5027518;28;20053;-88
2022/12/18 05:25:47;;;;;;;48.47;18.85;;;-1.50;54.20;;;;;;5022188;28;20056;-88
2022/12/18 05:28:14;;;;;;;40.47;17.73;;;-1.50;54.20;;;;;;5029192;28;20413;-88
2022/12/18 05:30:41;;;;;;;35.80;17.38;;;-1.50;54.20;;;;;;5021607;28;20046;-88
2022/12/18 05:33:09;;;;;;;39.40;17.90;;;-1.50;54.20;;;;;;5023363;28;20524;-88
2022/12/18 05:35:36;;;;;;;40.25;18.10;;;-1.50;54.10;;;;;;5020835;28;20053;-88
2022/12/18 05:38:03;;;;;;;47.70;18.92;;;-1.50;54.10;;;;;;5023055;28;20496;-88
2022/12/18 05:40:32;;;;;;;45.78;18.70;;;-1.50;54.10;;;;;;5027339;28;20492;-88
2022/12/18 05:42:59;;;;;;;38.03;17.90;;;-1.50;54.10;;;;;;5022986;28;20497;-88
2022/12/18 05:45:26;;;;;;;39.08;16.85;;;-1.50;54.20;;;;;;5020824;28;20080;-89
2022/12/18 05:47:54;;;;;;;42.35;18.33;;;-1.50;54.10;;;;;;5022838;28;20520;-88
2022/12/18 05:50:21;;;;;;;44.53;18.13;;;-1.50;54.10;;;;;;5024632;28;20053;-88
2022/12/18 05:52:48;;;;;;;39.53;17.27;;;-1.50;54.20;;;;;;5020510;28;20061;-87
2022/12/18 05:55:16;;;;;;;36.60;16.08;;;-1.50;54.20;;;;;;5019858;28;20057;-89
2022/12/18 05:57:44;;;;;;;36.88;16.63;;;-1.50;54.40;;;;;;5022220;28;20057;-89
2022/12/18 06:00:13;;;;;;;40.15;17.33;;;-1.50;54.40;;;;;;5018849;28;20060;-89
2022/12/18 06:02:40;;;;;;;45.45;18.17;;;-1.50;54.50;;;;;;5021479;28;20056;-88
2022/12/18 06:05:08;;;;;;;35.88;16.70;;;-1.50;54.50;;;;;;5020567;28;20053;-88
2022/12/18 06:07:36;;;;;;;38.38;16.75;;;-1.50;54.50;;;;;;5016353;28;20501;-88
2022/12/18 06:10:03;;;;;;;39.20;16.20;;;-1.50;54.50;;;;;;5010612;28;20053;-88
2022/12/18 06:12:31;;;;;;;36.45;16.42;;;-1.50;54.60;;;;;;5018827;28;20164;-89
2022/12/18 06:14:59;;;;;;;40.10;17.27;;;-1.40;54.70;;;;;;5019499;28;20072;-89
2022/12/18 06:17:29;;;;;;;42.70;17.92;;;-1.40;54.70;;;;;;5021849;28;20057;-89
2022/12/18 06:19:57;;;;;;;37.42;17.38;;;-1.40;54.60;;;;;;5017257;28;20045;-88
2022/12/18 06:22:24;;;;;;;39.58;17.48;;;-1.40;54.50;;;;;;5018067;28;20053;-89
2022/12/18 06:24:51;;;;;;;42.75;17.65;;;-1.40;54.50;;;;;;5018035;28;20694;-88
2022/12/18 06:27:19;;;;;;;38.60;17.35;;;-1.40;54.50;;;;;;5021797;28;20516;-89
2022/12/18 06:29:47;;;;;;;43.03;17.83;;;-1.40;54.50;;;;;;5020261;28;20061;-88
2022/12/18 06:32:16;;;;;;;39.72;16.92;;;-1.40;54.60;;;;;;5016618;28;20049;-88
2022/12/18 06:34:43;;;;;;;38.38;16.52;;;-1.40;54.50;;;;;;5018776;28;20061;-86
2022/12/18 06:37:11;;;;;;;38.45;16.35;;;-1.40;54.50;;;;;;5015710;28;20259;-88
2022/12/18 06:39:38;;;;;;;37.30;16.17;;;-1.40;54.60;;;;;;5012610;28;20049;-89
2022/12/18 06:42:06;;;;;;;38.88;17.77;;;-1.40;54.60;;;;;;5016977;28;20156;-88
2022/12/18 06:44:33;;;;;;;45.17;18.20;;;-1.30;54.60;;;;;;5018402;28;20474;-84
2022/12/18 06:47:00;;;;;;;33.70;15.73;;;-1.30;54.60;;;;;;5016102;28;20449;-89
2022/12/18 06:49:29;;;;;;;51.20;21.45;;;-1.30;54.50;;;;;;5012857;28;20409;-89
2022/12/18 06:51:57;;;;;;;40.10;19.17;;;-1.30;54.60;;;;;;5015700;28;20061;-89
2022/12/18 06:54:24;;;;;;;38.50;17.15;;;-1.30;54.60;;;;;;5016333;28;20104;-88
2022/12/18 06:56:51;;;;;;;40.70;16.77;;;-1.30;54.50;;;;;;5016749;28;20406;-88
2022/12/18 06:59:19;;;;;;;38.33;16.13;;;-1.30;54.50;;;;;;5014945;28;20056;-91
2022/12/18 07:01:46;;;;;;;41.75;17.83;;;-1.30;54.50;;;;;;5016170;28;20080;-88
2022/12/18 07:04:14;;;;;;;38.72;16.45;;;-1.30;54.40;;;;;;5025320;28;20408;-90
2022/12/18 07:06:42;;;;;;;42.50;18.90;;;-1.20;54.40;;;;;;5014677;28;20049;-90
2022/12/18 07:09:10;;;;;;;49.50;18.55;;;-1.20;54.40;;;;;;5015632;28;20054;-89
2022/12/18 07:11:37;;;;;;;37.88;15.95;;;-1.20;54.30;;;;;;5019150;28;20056;-89
2022/12/18 07:14:04;;;;;;;45.25;17.45;;;-1.20;54.30;;;;;;5016998;28;20041;-89
2022/12/18 07:16:32;;;;;;;36.05;16.90;;;-1.30;54.30;;;;;;5019952;28;20054;-88
2022/12/18 07:18:59;;;;;;;45.25;18.25;;;-1.30;54.30;;;;;;5014738;28;20046;-91
2022/12/18 07:21:27;;;;;;;37.70;16.73;;;-1.20;54.30;;;;;;5009863;28;20060;-89
2022/12/18 07:23:55;;;;;;;36.90;16.60;;;-1.20;54.40;;;;;;5016033;28;20045;-90
2022/12/18 07:26:23;;;;;;;37.25;16.38;;;-1.20;54.30;;;;;;5015166;28;20062;-89
2022/12/18 07:28:51;;;;;;;73.95;27.33;;;-1.20;54.30;;;;;;5016619;28;20054;-88
2022/12/18 07:31:20;;;;;;;64.53;25.15;;;-1.20;54.20;;;;;;5011699;28;20444;-88
2022/12/18 07:33:47;;;;;;;44.65;18.77;;;-1.20;54.20;;;;;;5014126;28;20057;-88
2022/12/18 07:36:15;;;;;;;40.72;18.15;;;-1.20;54.20;;;;;;5018809;28;20054;-88
2022/12/18 07:38:42;;;;;;;36.72;16.15;;;-1.20;54.20;;;;;;5017416;28;20069;-90
2022/12/18 07:41:14;;;;;;;37.22;16.25;;;-1.20;54.10;;;;;;5025019;28;20050;-89
2022/12/18 07:43:42;;;;;;;34.50;15.55;;;-1.20;54.20;;;;;;5016489;28;20155;-89
2022/12/18 07:46:10;;;;;;;37.47;16.52;;;-1.20;54.20;;;;;;5020468;28;20046;-91
2022/12/18 07:48:38;;;;;;;41.15;18.30;;;-1.20;54.20;;;;;;5018327;28;20076;-91
2022/12/18 07:51:07;;;;;;;43.75;18.25;;;-1.20;54.10;;;;;;5017221;28;20042;-88
2022/12/18 07:53:36;;;;;;;43.85;18.88;;;-1.20;54.00;;;;;;5024052;28;20044;-88
2022/12/18 07:56:06;;;;;;;39.95;18.08;;;-1.20;54.00;;;;;;5021366;28;20066;-90
2022/12/18 07:58:36;;;;;;;44.17;19.05;;;-1.20;53.90;;;;;;5022175;28;20045;-93
2022/12/18 08:01:05;;;;;;;40.85;17.83;;;-1.20;53.90;;;;;;5020126;28;20058;-93
2022/12/18 08:03:32;;;;;;;37.95;16.98;;;-1.20;53.90;;;;;;5022647;28;20050;-87
2022/12/18 08:06:01;;;;;;;41.97;17.98;;;-1.10;53.90;;;;;;5009124;28;20053;-90
2022/12/18 08:08:28;;;;;;;36.85;16.45;;;-1.20;53.90;;;;;;5015404;28;20049;-88
2022/12/18 08:10:56;;;;;;;38.50;17.40;;;-1.20;54.00;;;;;;5024373;28;20057;-86
2022/12/18 08:13:24;;;;;;;36.95;16.08;;;-1.20;54.00;;;;;;5015458;28;20042;-85
2022/12/18 08:15:58;;;;;;;37.72;16.85;;;-1.20;54.00;;;;;;5023379;28;20060;-87
2022/12/18 08:18:26;;;;;;;37.72;16.27;;;-1.20;54.00;;;;;;5021086;28;20054;-87
2022/12/18 08:20:53;;;;;;;38.22;16.40;;;-1.10;54.10;;;;;;5020625;28;20057;-90
2022/12/18 08:23:21;;;;;;;39.00;17.00;;;-1.10;54.10;;;;;;5019885;28;20416;-89
2022/12/18 08:25:48;;;;;;;38.58;16.70;;;-1.10;54.10;;;;;;5023179;28;20065;-88
2022/12/18 08:28:15;;;;;;;41.28;17.60;;;-1.10;54.20;;;;;;5019588;28;20065;-89
2022/12/18 08:30:43;;;;;;;43.72;17.05;;;-1.10;54.20;;;;;;5021238;28;20413;-88
2022/12/18 08:33:11;;;;;;;40.95;17.65;;;-1.10;54.30;;;;;;5023301;28;20057;-88
2022/12/18 08:35:39;;;;;;;43.03;17.88;;;-1.10;54.50;;;;;;5018155;28;20060;-89
2022/12/18 08:38:06;;;;;;;40.85;16.75;;;-1.00;54.60;;;;;;5019130;28;20064;-88
2022/12/18 08:40:34;;;;;;;37.50;14.80;;;-1.00;54.70;;;;;;5019825;28;20468;-88
2022/12/18 08:45:46;;;;;;;38.08;15.95;;;-1.00;54.90;;;;;;5027405;28;20072;-88
2022/12/18 08:48:15;;;;;;;36.15;15.07;;;-1.00;55.00;;;;;;5022871;28;20068;-88
2022/12/18 08:50:42;;;;;;;36.50;15.60;;;-0.90;55.10;;;;;;5021772;28;20092;-89
2022/12/18 08:53:10;;;;;;;43.78;17.95;;;-0.90;55.20;;;;;;5019452;28;20053;-88
2022/12/18 08:55:37;;;;;;;42.20;17.60;;;-0.90;55.30;;;;;;5019486;28;20060;-87
2022/12/18 08:58:04;;;;;;;37.05;17.33;;;-0.80;55.40;;;;;;5022315;28;20057;-88
2022/12/18 09:00:31;;;;;;;36.17;16.13;;;-0.80;55.40;;;;;;5020128;28;20050;-89
2022/12/18 09:02:59;;;;;;;35.72;16.38;;;-0.70;55.50;;;;;;5023264;28;20049;-90
2022/12/18 09:05:27;;;;;;;37.20;16.08;;;-0.70;55.50;;;;;;5023015;28;20133;-90
2022/12/18 09:07:55;;;;;;;37.00;16.23;;;-0.60;55.70;;;;;;5019149;28;20057;-90
2022/12/18 09:10:23;;;;;;;35.25;15.80;;;-0.60;55.70;;;;;;5021567;28;20053;-90
2022/12/18 09:12:50;;;;;;;35.60;16.42;;;-0.60;55.80;;;;;;5021265;28;20493;-89
2022/12/18 09:15:17;;;;;;;41.40;18.08;;;-0.50;55.80;;;;;;5022030;28;20485;-89
2022/12/18 09:17:45;;;;;;;34.08;16.77;;;-0.40;55.80;;;;;;5020861;28;20061;-90
2022/12/18 09:20:12;;;;;;;39.70;16.05;;;-0.40;55.70;;;;;;5021427;28;20405;-89
2022/12/18 09:22:41;;;;;;;32.30;15.27;;;-0.40;55.70;;;;;;5022286;28;20051;-87
2022/12/18 09:25:08;;;;;;;35.60;16.13;;;-0.30;55.70;;;;;;5019621;28;20938;-88
2022/12/18 09:27:36;;;;;;;34.63;16.20;;;-0.30;55.60;;;;;;5020400;28;20049;-90
2022/12/18 09:30:04;;;;;;;37.65;16.35;;;-0.20;55.60;;;;;;5021670;28;20061;-88
2022/12/18 09:32:32;;;;;;;31.10;15.27;;;-0.20;55.50;;;;;;5026555;28;20049;-89
2022/12/18 09:34:59;;;;;;;37.00;16.58;;;-0.10;55.50;;;;;;5028353;28;20050;-87
2022/12/18 09:37:26;;;;;;;33.45;15.73;;;-0.10;55.40;;;;;;5015924;28;20641;-88
2022/12/18 09:39:57;;;;;;;38.55;16.95;;;-0.10;55.30;;;;;;5018480;28;20076;-86
2022/12/18 09:42:25;;;;;;;40.30;17.67;;;-0.10;55.20;;;;;;5021110;28;20057;-91
2022/12/18 09:44:54;;;;;;;38.38;16.55;;;0.00;55.20;;;;;;5027511;28;20049;-88
2022/12/18 09:47:26;;;;;;;35.60;17.42;;;0.00;55.20;;;;;;5020048;28;20064;-86
2022/12/18 09:49:59;;;;;;;33.22;15.95;;;0.00;55.20;;;;;;5022716;28;20050;-94
2022/12/18 09:52:30;;;;;;;36.15;16.52;;;0.10;55.20;;;;;;5019420;28;20060;-93
2022/12/18 09:55:05;;;;;;;39.65;17.40;;;0.10;55.20;;;;;;5019702;28;20421;-85
2022/12/18 09:57:36;;;;;;;38.78;16.52;;;0.20;55.10;;;;;;5019466;28;20056;-89
2022/12/18 10:00:18;;;;;;;37.78;16.23;;;0.20;55.00;;;;;;5020335;28;20053;-92
2022/12/18 10:02:47;;;;;;;31.40;15.60;;;0.20;55.00;;;;;;5019939;28;20060;-87
2022/12/18 10:05:17;;;;;;;36.72;17.00;;;0.30;55.00;;;;;;5019920;28;20053;-87
2022/12/18 10:07:56;;;;;;;36.95;16.60;;;0.30;55.40;;;;;;5017445;28;21325;-89
2022/12/18 10:10:38;;;;;;;48.58;22.17;;;0.30;54.90;;;;;;5019989;28;20080;-89
2022/12/18 10:13:15;;;;;;;41.35;18.77;;;0.40;54.90;;;;;;5020097;28;20072;-84
2022/12/18 10:15:53;;;;;;;37.70;17.33;;;0.40;54.80;;;;;;5022361;28;20501;-87
2022/12/18 10:18:32;;;;;;;71.35;27.85;;;0.50;54.80;;;;;;5011887;28;20087;-87
2022/12/18 10:21:06;;;;;;;42.00;17.80;;;0.50;54.70;;;;;;5017362;28;20058;-88
2022/12/18 10:23:40;;;;;;;32.35;16.27;;;0.50;54.70;;;;;;5016452;28;20053;-91
2022/12/18 10:26:11;;;;;;;33.85;16.27;;;0.60;54.80;;;;;;5019746;28;20584;-92
2022/12/18 10:28:41;;;;;;;41.17;17.98;;;0.60;54.80;;;;;;5016558;28;20053;-88
2022/12/18 10:31:13;;;;;;;33.17;15.77;;;0.60;54.70;;;;;;5012950;28;20639;-88
2022/12/18 10:33:41;;;;;;;38.33;16.27;;;0.60;54.60;;;;;;5020703;28;20056;-89
2022/12/18 10:36:08;;;;;;;35.13;16.40;;;0.70;54.70;;;;;;5020263;28;20049;-90
2022/12/18 10:38:36;;;;;;;36.10;16.35;;;0.70;54.70;;;;;;5019232;28;20067;-88
2022/12/18 10:41:05;;;;;;;40.53;20.23;;;0.80;54.60;;;;;;5018032;28;21775;-90
2022/12/18 10:43:35;;;;;;;34.50;17.15;;;0.80;54.60;;;;;;5018120;28;20062;-88
2022/12/18 10:46:15;;;;;;;37.08;17.85;;;0.80;54.50;;;;;;5021421;28;20053;-88
2022/12/18 10:48:53;;;;;;;37.85;16.00;;;0.80;54.40;;;;;;5021699;28;20068;-87
2022/12/18 10:51:23;;;;;;;36.50;17.05;;;0.90;54.50;;;;;;5017899;28;20050;-90
2022/12/18 10:53:57;;;;;;;35.50;15.93;;;0.90;54.40;;;;;;5019669;28;20053;-88
2022/12/18 10:56:25;;;;;;;;;;;1.00;54.40;;;;;;5021952;28;20526;-88
2022/12/18 10:59:00;;;;;;;39.80;17.25;;;1.00;54.40;;;;;;5019447;28;19921;-88
2022/12/18 11:01:29;;;;;;;38.92;17.55;;;1.10;54.30;;;;;;5017970;28;20053;-88
2022/12/18 11:04:09;;;;;;;32.83;16.25;;;1.10;54.20;;;;;;5020732;28;20061;-89
2022/12/18 11:06:54;;;;;;;40.13;18.02;;;1.10;54.10;;;;;;5019666;28;20052;-89
2022/12/18 11:09:23;;;;;;;35.83;17.98;;;1.10;54.00;;;;;;5016117;28;20404;-88
2022/12/18 11:11:52;;;;;;;39.42;16.95;;;1.10;54.00;;;;;;5021638;28;20500;-87
2022/12/18 11:14:23;;;;;;;35.92;16.75;;;1.10;54.00;;;;;;5016941;28;20064;-88
2022/12/18 11:16:52;;;;;;;34.38;15.57;;;1.20;54.10;;;;;;5018083;28;20826;-87
2022/12/18 11:19:31;;;;;;;35.28;16.80;;;1.20;54.10;;;;;;5020723;28;20053;-87
2022/12/18 11:21:59;;;;;;;32.60;16.25;;;1.20;54.20;;;;;;5021197;28;20054;-88
2022/12/18 11:24:31;;;;;;;38.03;17.83;;;1.20;54.10;;;;;;5014404;28;20057;-88
2022/12/18 11:27:02;;;;;;;37.45;18.38;;;1.20;54.00;;;;;;5021277;28;20057;-86
2022/12/18 11:29:38;;;;;;;32.97;16.05;;;1.30;54.00;;;;;;5013896;28;20533;-86
2022/12/18 11:32:40;;;;;;;36.63;17.27;;;1.30;54.00;;;;;;5015267;28;20046;-89
2022/12/18 11:35:18;;;;;;;33.95;16.60;;;1.30;53.80;;;;;;4938872;28;20063;-87
2022/12/18 11:37:51;;;;;;;40.97;17.38;;;1.30;53.90;;;;;;4940343;28;20062;-86
2022/12/18 11:40:24;;;;;;;53.57;21.83;;;1.40;53.90;;;;;;4982184;28;20053;-88
2022/12/18 11:42:55;;;;;;;54.67;23.17;;;1.40;53.80;;;;;;5016595;28;20060;-89
2022/12/18 11:45:38;;;;;;;41.50;18.63;;;1.40;53.80;;;;;;5018795;28;20580;-88
2022/12/18 11:48:17;;;;;;;40.80;18.13;;;1.40;53.80;;;;;;5021325;28;20057;-89
2022/12/18 11:50:50;;;;;;;38.10;17.83;;;1.40;53.80;;;;;;5021121;28;20397;-88
2022/12/18 11:53:18;;;;;;;39.20;17.98;;;1.40;53.70;;;;;;5025894;28;20499;-88
2022/12/18 11:55:59;;;;;;;36.88;17.90;;;1.40;53.70;;;;;;5018376;28;20444;-89
2022/12/18 11:58:44;;;;;;;36.72;17.27;;;1.40;53.50;;;;;;5018354;28;20062;-89
2022/12/18 12:01:21;;;;;;;36.72;18.02;;;1.40;53.60;;;;;;5020318;28;20049;-88
2022/12/18 12:04:21;;;;;;;37.55;18.35;;;1.40;53.70;;;;;;5019313;28;20061;-88
2022/12/18 12:06:56;;;;;;;39.20;17.98;;;1.40;53.60;;;;;;5020857;28;20057;-88
2022/12/18 12:09:32;;;;;;;36.00;17.15;;;1.50;53.70;;;;;;5019320;28;20497;-88
2022/12/18 12:12:14;;;;;;;42.75;17.42;;;1.50;53.80;;;;;;5019470;28;20049;-88
2022/12/18 12:14:50;;;;;;;39.65;17.70;;;1.50;53.80;;;;;;5027114;28;20053;-89
2022/12/18 12:17:30;;;;;;;37.78;18.27;;;1.50;53.80;;;;;;5020897;28;20054;-88
2022/12/18 12:20:08;;;;;;;38.80;18.88;;;1.50;53.70;;;;;;5019518;28;20065;-88
2022/12/18 12:22:47;;;;;;;35.92;17.45;;;1.50;53.70;;;;;;5020145;28;20049;-88
2022/12/18 12:25:29;;;;;;;41.33;18.77;;;1.50;53.60;;;;;;5018309;28;20057;-89
2022/12/18 12:28:07;;;;;;;42.33;18.63;;;1.60;53.60;;;;;;5021292;28;20667;-87
2022/12/18 12:30:44;;;;;;;41.65;19.30;;;1.60;53.70;;;;;;5024348;28;20061;-87
2022/12/18 12:33:24;;;;;;;39.75;19.45;;;1.50;53.60;;;;;;5030267;28;20049;-87
2022/12/18 12:35:58;;;;;;;39.63;19.77;;;1.60;53.60;;;;;;5020387;28;20053;-87
2022/12/18 12:38:29;;;;;;;44.72;19.92;;;1.60;53.60;;;;;;5022762;28;20420;-88
2022/12/18 12:41:00;;;;;;;45.00;20.55;;;1.60;53.60;;;;;;5024687;28;20057;-88
2022/12/18 12:43:35;;;;;;;39.22;18.48;;;1.60;53.50;;;;;;5020988;28;20057;-87
2022/12/18 12:46:05;;;;;;;46.95;20.73;;;1.60;53.50;;;;;;5023212;28;20516;-88
2022/12/18 12:48:41;;;;;;;47.03;22.38;;;1.70;53.60;;;;;;5023477;28;20497;-88
2022/12/18 12:51:14;;;;;;;42.35;19.40;;;1.70;53.50;;;;;;5024150;28;20084;-88
2022/12/18 12:53:42;;;;;;;41.90;20.33;;;1.70;53.50;;;;;;5020303;28;20053;-88